createdAt,value
2022-12-11T00:01:52.853Z,74.80
2022-12-11T00:04:24.161Z,74.89
2022-12-11T00:06:54.597Z,74.89
2022-12-11T00:09:25.163Z,75.26
2022-12-11T00:11:56.434Z,75.32
2022-12-11T00:14:27.261Z,75.36
2022-12-11T00:16:57.892Z,74.94
2022-12-11T00:19:28.221Z,74.92
2022-12-11T00:21:58.813Z,74.63
2022-12-11T00:24:29.787Z,74.33
2022-12-11T00:27:00.961Z,74.58
2022-12-11T00:29:31.641Z,74.85
2022-12-11T00:32:02.641Z,75.08
2022-12-11T00:34:33.025Z,75.27
2022-12-11T00:37:03.429Z,75.27
2022-12-11T00:39:34.265Z,75.29
2022-12-11T00:42:05.446Z,74.72
2022-12-11T00:44:36.594Z,74.88
2022-12-11T00:47:08.569Z,74.97
2022-12-11T00:49:39.189Z,74.90
2022-12-11T00:52:10.851Z,74.77
2022-12-11T00:54:41.157Z,74.93
2022-12-11T00:57:12.108Z,75.00
2022-12-11T00:59:42.711Z,75.17
2022-12-11T01:02:13.795Z,75.35
2022-12-11T01:04:44.080Z,75.55
2022-12-11T01:07:15.053Z,75.78
2022-12-11T01:10:03.239Z,75.67
2022-12-11T01:12:34.216Z,75.63
2022-12-11T01:15:06.200Z,75.86
2022-12-11T01:17:37.193Z,75.92
2022-12-11T01:20:09.386Z,75.71
2022-12-11T01:22:39.762Z,75.34
2022-12-11T01:25:11.161Z,75.55
2022-12-11T01:27:41.841Z,75.91
2022-12-11T01:30:14.549Z,75.79
2022-12-11T01:32:45.001Z,75.91
2022-12-11T01:35:16.072Z,75.89
2022-12-11T01:37:47.043Z,75.54
2022-12-11T01:40:19.769Z,75.69
2022-12-11T01:42:50.423Z,75.56
2022-12-11T01:45:33.507Z,75.71
2022-12-11T01:48:09.551Z,75.89
2022-12-11T01:50:43.223Z,75.65
2022-12-11T01:53:18.642Z,75.77
2022-12-11T01:55:52.351Z,75.53
2022-12-11T01:58:26.563Z,75.53
2022-12-11T02:00:58.090Z,75.38
2022-12-11T02:03:29.094Z,75.04
2022-12-11T02:06:03.063Z,75.12
2022-12-11T02:08:34.291Z,75.04
2022-12-11T02:11:11.847Z,75.25
2022-12-11T02:13:53.864Z,75.28
2022-12-11T02:16:34.109Z,75.51
2022-12-11T02:19:15.970Z,75.78
2022-12-11T02:21:54.054Z,75.51
2022-12-11T02:24:30.147Z,75.16
2022-12-11T02:27:24.435Z,75.34
2022-12-11T02:30:01.222Z,75.49
2022-12-11T02:32:39.386Z,75.32
2022-12-11T02:35:16.192Z,75.36
2022-12-11T02:37:48.798Z,75.29
2022-12-11T02:40:25.096Z,75.32
2022-12-11T02:42:59.015Z,75.44
2022-12-11T02:45:32.109Z,75.54
2022-12-11T02:48:05.821Z,75.23
2022-12-11T02:50:39.068Z,75.27
2022-12-11T02:53:12.331Z,75.17
2022-12-11T02:55:45.064Z,75.22
2022-12-11T02:58:20.581Z,75.00
2022-12-11T03:00:51.559Z,75.06
2022-12-11T03:03:22.784Z,75.13
2022-12-11T03:05:53.349Z,75.27
2022-12-11T03:08:23.828Z,75.16
2022-12-11T03:10:54.271Z,75.69
2022-12-11T03:13:25.565Z,75.61
2022-12-11T03:16:05.886Z,75.14
2022-12-11T03:18:45.980Z,75.37
2022-12-11T03:21:23.443Z,75.53
2022-12-11T03:24:02.833Z,75.75
2022-12-11T03:26:38.772Z,75.42
2022-12-11T03:29:17.669Z,75.50
2022-12-11T03:31:52.488Z,75.73
2022-12-11T03:34:29.195Z,75.68
2022-12-11T03:37:01.142Z,75.69
2022-12-11T03:39:34.341Z,76.10
2022-12-11T03:42:08.968Z,76.07
2022-12-11T03:44:39.983Z,75.93
2022-12-11T03:47:11.859Z,75.90
2022-12-11T03:49:45.783Z,75.55
2022-12-11T03:52:18.280Z,75.77
2022-12-11T03:54:51.731Z,75.90
2022-12-11T03:57:26.895Z,75.92
2022-12-11T03:59:57.640Z,76.32
2022-12-11T04:02:28.446Z,75.92
2022-12-11T04:04:58.828Z,76.09
2022-12-11T04:07:31.347Z,76.20
2022-12-11T04:10:04.092Z,76.48
2022-12-11T04:12:34.773Z,76.77
2022-12-11T04:15:05.833Z,76.82
2022-12-11T04:17:55.638Z,76.66
2022-12-11T04:20:55.093Z,76.56
2022-12-11T04:23:43.368Z,76.38
2022-12-11T04:26:15.914Z,76.54
2022-12-11T04:28:48.116Z,76.55
2022-12-11T04:31:20.812Z,76.42
2022-12-11T04:33:51.387Z,76.35
2022-12-11T04:36:21.782Z,76.17
2022-12-11T04:38:52.596Z,76.11
2022-12-11T04:41:23.203Z,76.22
2022-12-11T04:43:53.706Z,76.00
2022-12-11T04:46:26.182Z,76.44
2022-12-11T04:48:57.942Z,76.53
2022-12-11T04:51:29.504Z,76.40
2022-12-11T04:54:00.848Z,76.18
2022-12-11T04:56:31.517Z,76.11
2022-12-11T04:59:02.237Z,75.92
2022-12-11T05:01:33.271Z,75.89
2022-12-11T05:04:04.101Z,75.91
2022-12-11T05:06:34.760Z,75.50
2022-12-11T05:09:05.294Z,75.72
2022-12-11T05:11:38.542Z,75.70
2022-12-11T05:14:09.323Z,75.74
2022-12-11T05:16:39.687Z,75.84
2022-12-11T05:19:10.079Z,75.35
2022-12-11T05:21:40.611Z,75.23
2022-12-11T05:24:11.556Z,75.61
2022-12-11T05:26:42.365Z,75.54
2022-12-11T05:29:13.403Z,75.33
2022-12-11T05:31:43.894Z,75.44
2022-12-11T05:34:15.208Z,75.60
2022-12-11T05:36:45.570Z,75.60
2022-12-11T05:39:15.982Z,75.68
2022-12-11T05:41:46.376Z,75.79
2022-12-11T05:44:16.936Z,76.06
2022-12-11T05:46:47.310Z,75.89
2022-12-11T05:49:20.032Z,75.77
2022-12-11T05:51:50.631Z,76.08
2022-12-11T05:54:21.027Z,76.27
2022-12-11T05:56:52.171Z,76.69
2022-12-11T05:59:23.139Z,76.49
2022-12-11T06:01:53.761Z,76.68
2022-12-11T06:04:24.504Z,76.57
2022-12-11T06:06:56.986Z,76.58
2022-12-11T06:09:27.376Z,76.28
2022-12-11T06:11:57.786Z,76.69
2022-12-11T06:14:28.407Z,76.83
2022-12-11T06:16:59.143Z,76.52
2022-12-11T06:19:33.485Z,76.52
2022-12-11T06:22:07.494Z,76.34
2022-12-11T06:24:38.538Z,75.98
2022-12-11T06:27:09.140Z,76.14
2022-12-11T06:29:39.478Z,76.03
2022-12-11T06:32:10.384Z,76.01
2022-12-11T06:34:41.005Z,75.77
2022-12-11T06:37:11.872Z,75.59
2022-12-11T06:39:42.308Z,75.47
2022-12-11T06:42:13.459Z,75.73
2022-12-11T06:44:44.127Z,75.99
2022-12-11T06:47:14.481Z,76.28
2022-12-11T06:49:45.109Z,76.41
2022-12-11T06:52:18.591Z,76.50
2022-12-11T06:54:49.557Z,76.67
2022-12-11T06:57:20.728Z,76.63
2022-12-11T06:59:52.105Z,75.89
2022-12-11T07:02:23.272Z,76.20
2022-12-11T07:04:55.331Z,76.11
2022-12-11T07:07:26.131Z,76.01
2022-12-11T07:09:57.131Z,76.00
2022-12-11T07:12:27.631Z,76.11
2022-12-11T07:14:58.380Z,76.41
2022-12-11T07:17:29.265Z,76.45
2022-12-11T07:19:59.688Z,76.25
2022-12-11T07:22:31.183Z,76.45
2022-12-11T07:25:02.124Z,76.38
2022-12-11T07:27:33.236Z,76.44
2022-12-11T07:30:05.103Z,76.22
2022-12-11T07:32:35.868Z,76.32
2022-12-11T07:35:07.208Z,76.07
2022-12-11T07:37:40.788Z,75.70
2022-12-11T07:40:14.504Z,75.66
2022-12-11T07:42:46.424Z,75.74
2022-12-11T07:45:17.516Z,75.75
2022-12-11T07:47:48.320Z,75.86
2022-12-11T07:50:19.012Z,75.95
2022-12-11T07:52:49.403Z,76.10
2022-12-11T07:55:20.422Z,75.69
2022-12-11T07:57:50.868Z,75.53
2022-12-11T08:00:21.771Z,75.54
2022-12-11T08:02:52.862Z,75.75
2022-12-11T08:05:23.653Z,75.59
2022-12-11T08:07:54.471Z,75.41
2022-12-11T08:10:25.575Z,75.63
2022-12-11T08:12:56.989Z,75.94
2022-12-11T08:15:27.382Z,76.09
2022-12-11T08:17:58.047Z,75.91
2022-12-11T08:20:28.465Z,76.13
2022-12-11T08:22:59.601Z,75.78
2022-12-11T08:25:30.014Z,75.46
2022-12-11T08:28:00.454Z,75.39
2022-12-11T08:30:31.875Z,75.64
2022-12-11T08:33:02.398Z,75.95
2022-12-11T08:35:33.430Z,76.11
2022-12-11T08:38:04.260Z,76.10
2022-12-11T08:40:34.716Z,75.96
2022-12-11T08:43:05.537Z,75.54
2022-12-11T08:45:36.085Z,75.80
2022-12-11T08:48:06.887Z,75.63
2022-12-11T08:50:38.172Z,75.57
2022-12-11T08:53:08.676Z,75.59
2022-12-11T08:55:39.411Z,75.45
2022-12-11T08:58:09.889Z,75.18
2022-12-11T09:00:40.722Z,75.23
2022-12-11T09:03:13.093Z,74.87
2022-12-11T09:05:44.197Z,74.99
2022-12-11T09:08:14.975Z,74.70
2022-12-11T09:10:45.690Z,74.82
2022-12-11T09:13:16.556Z,74.93
2022-12-11T09:15:47.517Z,74.88
2022-12-11T09:18:18.077Z,74.82
2022-12-11T09:20:48.987Z,74.83
2022-12-11T09:23:19.921Z,74.52
2022-12-11T09:25:50.842Z,74.66
2022-12-11T09:28:21.464Z,74.44
2022-12-11T09:30:52.478Z,74.68
2022-12-11T09:33:23.312Z,74.47
2022-12-11T09:36:00.916Z,74.77
2022-12-11T09:38:31.873Z,75.07
2022-12-11T09:41:03.350Z,75.03
2022-12-11T09:43:43.129Z,75.03
2022-12-11T09:46:16.542Z,74.69
2022-12-11T09:48:49.253Z,74.73
2022-12-11T09:51:25.788Z,74.39
2022-12-11T09:53:57.985Z,74.07
2022-12-11T09:56:33.806Z,74.12
2022-12-11T09:59:11.887Z,73.82
2022-12-11T10:01:45.150Z,73.25
2022-12-11T10:04:32.175Z,73.64
2022-12-11T10:07:13.027Z,73.33
2022-12-11T10:09:50.240Z,73.00
2022-12-11T10:12:39.991Z,72.89
2022-12-11T10:15:25.244Z,73.01
2022-12-11T10:18:04.398Z,72.99
2022-12-11T10:20:39.411Z,72.95
2022-12-11T10:23:17.725Z,72.73
2022-12-11T10:25:54.900Z,72.50
2022-12-11T10:28:28.336Z,72.52
2022-12-11T10:31:08.704Z,72.80
2022-12-11T10:33:47.537Z,73.12
2022-12-11T10:36:26.370Z,73.21
2022-12-11T10:38:56.848Z,73.48
2022-12-11T10:41:37.931Z,73.59
2022-12-11T10:44:18.872Z,73.44
2022-12-11T10:46:50.980Z,73.05
2022-12-11T10:49:31.112Z,72.76
2022-12-11T10:52:02.438Z,72.51
2022-12-11T10:54:38.040Z,72.70
2022-12-11T10:57:11.209Z,72.72
2022-12-11T10:59:46.663Z,72.58
2022-12-11T11:02:24.165Z,72.26
2022-12-11T11:04:56.817Z,72.48
2022-12-11T11:07:30.033Z,72.80
2022-12-11T11:10:18.442Z,73.13
2022-12-11T11:12:50.561Z,72.89
2022-12-11T11:15:26.419Z,73.11
2022-12-11T11:17:58.580Z,73.44
2022-12-11T11:20:31.992Z,73.26
2022-12-11T11:23:04.512Z,73.19
2022-12-11T11:25:36.606Z,72.94
2022-12-11T11:28:16.572Z,72.67
2022-12-11T11:31:01.538Z,72.65
2022-12-11T11:33:34.328Z,72.74
2022-12-11T11:36:08.752Z,72.80
2022-12-11T11:38:45.397Z,72.56
2022-12-11T11:41:20.815Z,72.76
2022-12-11T11:43:55.793Z,72.88
2022-12-11T11:46:31.703Z,72.92
2022-12-11T11:49:10.046Z,73.14
2022-12-11T11:51:44.293Z,72.97
2022-12-11T11:54:32.834Z,72.55
2022-12-11T11:57:12.412Z,73.05
2022-12-11T11:59:48.237Z,72.55
2022-12-11T12:02:20.950Z,72.91
2022-12-11T12:04:51.928Z,73.03
2022-12-11T12:07:38.993Z,72.93
2022-12-11T12:10:22.820Z,73.01
2022-12-11T12:13:01.407Z,73.31
2022-12-11T12:15:44.790Z,73.35
2022-12-11T12:18:23.746Z,73.92
2022-12-11T12:21:02.088Z,73.65
2022-12-11T12:23:50.624Z,73.44
2022-12-11T12:26:28.894Z,73.24
2022-12-11T12:29:12.463Z,73.48
2022-12-11T12:31:57.001Z,73.63
2022-12-11T12:34:42.896Z,73.43
2022-12-11T12:37:24.750Z,73.62
2022-12-11T12:40:04.733Z,73.29
2022-12-11T12:42:47.005Z,73.06
2022-12-11T12:45:29.738Z,73.24
2022-12-11T12:48:00.340Z,73.29
2022-12-11T12:50:38.526Z,73.34
2022-12-11T12:53:14.079Z,73.69
2022-12-11T12:55:45.540Z,73.53
2022-12-11T12:58:29.407Z,73.44
2022-12-11T13:01:11.817Z,73.47
2022-12-11T13:03:55.390Z,73.36
2022-12-11T13:06:35.245Z,73.93
2022-12-11T13:09:19.562Z,73.73
2022-12-11T13:11:53.732Z,73.67
2022-12-11T13:14:33.313Z,73.66
2022-12-11T13:17:26.322Z,73.82
2022-12-11T13:20:15.241Z,74.36
2022-12-11T13:23:08.767Z,74.72
2022-12-11T13:25:54.429Z,74.72
2022-12-11T13:28:48.221Z,74.41
2022-12-11T13:31:45.249Z,74.11
2022-12-11T13:34:23.598Z,73.71
2022-12-11T13:36:55.580Z,73.59
2022-12-11T13:39:31.485Z,73.60
2022-12-11T13:42:14.509Z,73.58
2022-12-11T13:44:51.293Z,73.85
2022-12-11T13:47:35.663Z,74.08
2022-12-11T13:50:22.326Z,74.51
2022-12-11T13:53:01.672Z,74.71
2022-12-11T13:55:35.523Z,74.74
2022-12-11T13:58:16.492Z,75.12
2022-12-11T14:01:03.913Z,74.96
2022-12-11T14:03:35.883Z,74.91
2022-12-11T14:06:14.864Z,75.22
2022-12-11T14:08:53.413Z,74.98
2022-12-11T14:11:28.644Z,74.76
2022-12-11T14:14:01.447Z,74.68
2022-12-11T14:16:33.230Z,74.39
2022-12-11T14:19:06.686Z,74.38
2022-12-11T14:21:37.788Z,74.28
2022-12-11T14:24:13.416Z,74.48
2022-12-11T14:26:52.931Z,74.56
2022-12-11T14:29:32.699Z,74.34
2022-12-11T14:32:06.722Z,74.15
2022-12-11T14:34:43.524Z,73.82
2022-12-11T14:37:18.794Z,73.69
2022-12-11T14:39:56.292Z,73.88
2022-12-11T14:42:29.898Z,74.11
2022-12-11T14:45:04.644Z,74.22
2022-12-11T14:47:39.764Z,73.98
2022-12-11T14:50:17.943Z,73.91
2022-12-11T14:52:53.339Z,74.02
2022-12-11T14:55:27.375Z,73.96
2022-12-11T14:58:01.020Z,73.79
2022-12-11T15:00:35.757Z,73.54
2022-12-11T15:03:08.508Z,73.23
2022-12-11T15:05:49.708Z,73.10
2022-12-11T15:08:24.919Z,73.03
2022-12-11T15:11:16.264Z,73.19
2022-12-11T15:13:53.089Z,72.87
2022-12-11T15:16:26.340Z,72.96
2022-12-11T15:18:58.760Z,72.96
2022-12-11T15:21:33.834Z,73.49
2022-12-11T15:24:07.034Z,73.58
2022-12-11T15:26:39.850Z,73.33
2022-12-11T15:29:33.165Z,73.54
2022-12-11T15:32:05.917Z,74.13
2022-12-11T15:34:43.760Z,74.07
2022-12-11T15:37:22.714Z,74.01
2022-12-11T15:39:54.918Z,73.96
2022-12-11T15:42:30.957Z,74.33
2022-12-11T15:45:07.609Z,74.82
2022-12-11T15:47:38.084Z,75.13
2022-12-11T15:50:18.655Z,75.60
2022-12-11T15:52:50.481Z,75.42
2022-12-11T15:55:22.436Z,75.20
2022-12-11T15:57:55.542Z,74.87
2022-12-11T16:00:28.146Z,75.07
2022-12-11T16:02:59.145Z,75.01
2022-12-11T16:05:29.755Z,75.02
2022-12-11T16:08:00.383Z,74.81
2022-12-11T16:10:31.099Z,74.77
2022-12-11T16:13:02.776Z,75.10
2022-12-11T16:15:33.786Z,74.83
2022-12-11T16:18:07.072Z,75.02
2022-12-11T16:20:39.088Z,74.81
2022-12-11T16:23:10.089Z,74.98
2022-12-11T16:25:42.535Z,75.00
2022-12-11T16:28:15.486Z,74.49
2022-12-11T16:30:47.346Z,74.98
2022-12-11T16:33:17.920Z,75.04
2022-12-11T16:35:48.382Z,75.82
2022-12-11T16:38:18.997Z,75.97
2022-12-11T16:40:49.393Z,75.66
2022-12-11T16:43:20.233Z,75.88
2022-12-11T16:45:56.789Z,75.80
2022-12-11T16:48:28.012Z,75.73
2022-12-11T16:50:58.562Z,76.10
2022-12-11T16:53:29.444Z,76.23
2022-12-11T16:55:59.799Z,76.23
2022-12-11T16:58:30.308Z,75.98
2022-12-11T17:01:03.068Z,75.91
2022-12-11T17:03:34.518Z,75.97
2022-12-11T17:06:09.778Z,75.99
2022-12-11T17:08:41.242Z,76.21
2022-12-11T17:11:15.354Z,76.20
2022-12-11T17:13:46.920Z,76.47
2022-12-11T17:16:18.726Z,76.32
2022-12-11T17:18:50.190Z,76.46
2022-12-11T17:21:25.180Z,76.82
2022-12-11T17:23:56.297Z,76.64
2022-12-11T17:26:28.562Z,77.29
2022-12-11T17:29:00.633Z,76.93
2022-12-11T17:31:31.817Z,76.86
2022-12-11T17:34:02.852Z,76.96
2022-12-11T17:36:34.017Z,76.88
2022-12-11T17:39:04.907Z,76.69
2022-12-11T17:41:35.710Z,76.89
2022-12-11T17:44:06.792Z,77.04
2022-12-11T17:46:37.673Z,77.15
2022-12-11T17:49:08.463Z,77.53
2022-12-11T17:51:38.948Z,77.32
2022-12-11T17:54:09.395Z,77.57
2022-12-11T17:56:40.642Z,77.57
2022-12-11T17:59:11.474Z,77.97
2022-12-11T18:01:41.906Z,78.05
2022-12-11T18:04:12.801Z,78.06
2022-12-11T18:06:43.241Z,78.19
2022-12-11T18:09:13.658Z,78.57
2022-12-11T18:11:44.438Z,78.64
2022-12-11T18:14:17.323Z,78.64
2022-12-11T18:16:48.738Z,78.53
2022-12-11T18:19:19.514Z,78.29
2022-12-11T18:21:50.526Z,78.13
2022-12-11T18:24:21.132Z,78.02
2022-12-11T18:26:51.560Z,77.70
2022-12-11T18:29:22.024Z,77.65
2022-12-11T18:31:52.607Z,77.61
2022-12-11T18:34:23.057Z,77.53
2022-12-11T18:36:54.108Z,77.44
2022-12-11T18:39:24.876Z,77.60
2022-12-11T18:42:30.728Z,77.63
2022-12-11T18:44:48.287Z,77.66
2022-12-11T18:47:18.773Z,77.56
2022-12-11T18:49:49.594Z,77.80
2022-12-11T18:52:20.014Z,77.60
2022-12-11T18:54:52.309Z,77.94
2022-12-11T18:57:22.772Z,77.57
2022-12-11T18:59:56.271Z,77.41
2022-12-11T19:02:27.076Z,77.39
2022-12-11T19:04:57.560Z,77.42
2022-12-11T19:07:28.743Z,77.43
2022-12-11T19:09:59.553Z,77.43
2022-12-11T19:12:30.612Z,77.60
2022-12-11T19:15:01.226Z,77.86
2022-12-11T19:17:31.972Z,77.91
2022-12-11T19:20:25.095Z,78.07
2022-12-11T19:22:53.819Z,77.93
2022-12-11T19:25:24.854Z,78.02
2022-12-11T19:27:57.057Z,77.88
2022-12-11T19:30:27.988Z,77.96
2022-12-11T19:32:58.578Z,78.14
2022-12-11T19:35:29.019Z,78.19
2022-12-11T19:37:59.507Z,77.81
2022-12-11T19:40:30.992Z,78.12
2022-12-11T19:43:01.833Z,78.10
2022-12-11T19:45:32.601Z,78.46
2022-12-11T19:48:03.446Z,78.70
2022-12-11T19:50:36.201Z,78.78
2022-12-11T19:53:06.859Z,78.91
2022-12-11T19:55:38.007Z,78.99
2022-12-11T19:58:08.816Z,78.82
2022-12-11T20:00:40.892Z,78.77
2022-12-11T20:03:11.742Z,78.57
2022-12-11T20:05:42.685Z,78.78
2022-12-11T20:08:42.951Z,78.92
2022-12-11T20:11:08.835Z,78.97
2022-12-11T20:13:45.609Z,78.79
2022-12-11T20:16:17.907Z,78.51
2022-12-11T20:18:49.620Z,78.82
2022-12-11T20:21:21.147Z,78.79
2022-12-11T20:23:51.890Z,79.05
2022-12-11T20:26:24.416Z,78.82
2022-12-11T20:28:55.433Z,78.85
2022-12-11T20:31:27.756Z,79.08
2022-12-11T20:33:58.810Z,79.45
2022-12-11T20:36:29.987Z,79.63
2022-12-11T20:39:00.761Z,79.61
2022-12-11T20:41:31.168Z,78.89
2022-12-11T20:44:02.401Z,79.02
2022-12-11T20:46:32.839Z,79.06
2022-12-11T20:49:03.547Z,78.76
2022-12-11T20:51:34.055Z,78.86
2022-12-11T20:54:04.508Z,78.68
2022-12-11T20:56:34.880Z,78.33
2022-12-11T20:59:05.786Z,78.68
2022-12-11T21:01:36.277Z,79.14
2022-12-11T21:04:07.020Z,79.35
2022-12-11T21:06:40.468Z,79.18
2022-12-11T21:09:13.297Z,78.65
2022-12-11T21:11:43.689Z,78.56
2022-12-11T21:14:14.184Z,78.63
2022-12-11T21:16:44.922Z,78.59
2022-12-11T21:19:17.343Z,78.65
2022-12-11T21:21:48.593Z,78.51
2022-12-11T21:24:21.200Z,78.49
2022-12-11T21:26:52.164Z,78.25
2022-12-11T21:29:23.617Z,78.42
2022-12-11T21:31:54.611Z,78.56
2022-12-11T21:34:26.012Z,79.01
2022-12-11T21:36:57.553Z,79.66
2022-12-11T21:39:29.283Z,79.73
2022-12-11T21:42:00.590Z,79.81
2022-12-11T21:47:22.292Z,79.27
2022-12-11T21:49:53.214Z,79.95
2022-12-11T21:52:24.101Z,79.49
2022-12-11T21:54:55.142Z,79.71
2022-12-11T21:57:26.770Z,79.58
2022-12-11T21:59:58.192Z,78.98
2022-12-11T22:02:28.557Z,78.98
2022-12-11T22:05:02.534Z,79.56
2022-12-11T22:07:32.875Z,78.84
2022-12-11T22:10:04.206Z,78.67
2022-12-11T22:12:35.135Z,78.92
2022-12-11T22:15:06.584Z,78.87
2022-12-11T22:17:37.687Z,78.88
2022-12-11T22:20:10.122Z,78.83
2022-12-11T22:22:40.499Z,78.65
2022-12-11T22:25:11.915Z,78.65
2022-12-11T22:27:43.106Z,78.63
2022-12-11T22:30:15.319Z,78.61
2022-12-11T22:32:45.762Z,78.34
2022-12-11T22:35:16.292Z,78.46
2022-12-11T22:37:47.103Z,78.78
2022-12-11T22:40:17.456Z,79.16
2022-12-11T22:42:48.311Z,78.81
2022-12-11T22:45:19.266Z,78.90
2022-12-11T22:47:50.203Z,78.97
2022-12-11T22:50:20.631Z,79.35
2022-12-11T22:52:51.542Z,78.90
2022-12-11T22:55:22.149Z,78.74
2022-12-11T22:57:52.905Z,78.58
2022-12-11T23:00:23.534Z,78.91
2022-12-11T23:02:53.995Z,79.24
2022-12-11T23:05:24.490Z,79.26
2022-12-11T23:07:55.796Z,78.93
2022-12-11T23:10:26.717Z,78.87
2022-12-11T23:12:57.719Z,78.95
2022-12-11T23:15:28.270Z,78.73
2022-12-11T23:17:58.902Z,79.16
2022-12-11T23:20:29.887Z,79.07
2022-12-11T23:23:00.996Z,78.54
2022-12-11T23:25:31.385Z,79.00
2022-12-11T23:28:02.181Z,79.11
2022-12-11T23:30:32.643Z,79.66
2022-12-11T23:33:03.071Z,80.05
2022-12-11T23:35:33.779Z,80.27
2022-12-11T23:38:05.499Z,80.20
2022-12-11T23:40:36.408Z,80.18
2022-12-11T23:43:07.203Z,79.55
2022-12-11T23:45:37.933Z,79.46
2022-12-11T23:48:08.457Z,79.36
2022-12-11T23:50:39.663Z,79.26
2022-12-11T23:53:10.139Z,79.44
2022-12-11T23:55:44.151Z,79.46
2022-12-11T23:58:15.252Z,79.77
